createdAt,value
2023-02-13T00:00:17.754Z,99135.38
2023-02-13T00:02:44.252Z,99134.53
2023-02-13T00:05:11.007Z,99131.06
2023-02-13T00:07:37.492Z,99128.47
2023-02-13T00:10:04.418Z,99138.00
2023-02-13T00:12:31.003Z,99135.41
2023-02-13T00:14:59.140Z,99132.81
2023-02-13T00:17:26.179Z,99131.94
2023-02-13T00:19:52.823Z,99141.47
2023-02-13T00:22:19.416Z,99132.81
2023-02-13T00:24:46.242Z,99131.09
2023-02-13T00:27:12.937Z,99131.09
2023-02-13T00:29:39.439Z,99131.09
2023-02-13T00:32:06.120Z,99131.97
2023-02-13T00:34:32.718Z,99123.31
2023-02-13T00:36:59.212Z,99127.66
2023-02-13T00:39:25.812Z,99128.50
2023-02-13T00:41:52.297Z,99123.31
2023-02-13T00:44:18.819Z,99128.50
2023-02-13T00:46:45.357Z,99121.59
2023-02-13T00:49:11.853Z,99129.38
2023-02-13T00:51:38.373Z,99119.88
2023-02-13T00:54:04.988Z,99126.78
2023-02-13T00:56:31.538Z,99128.53
2023-02-13T00:58:57.991Z,99126.78
2023-02-13T01:01:24.480Z,99120.72
2023-02-13T01:03:51.029Z,99124.19
2023-02-13T01:06:17.661Z,99129.38
2023-02-13T01:08:44.241Z,99125.91
2023-02-13T01:11:10.751Z,99127.66
2023-02-13T01:13:37.419Z,99126.78
2023-02-13T01:16:05.122Z,99125.94
2023-02-13T01:18:31.686Z,99130.28
2023-02-13T01:21:06.689Z,99133.72
2023-02-13T01:23:35.736Z,99132.84
2023-02-13T01:26:07.357Z,99132.00
2023-02-13T01:28:34.072Z,99134.59
2023-02-13T01:31:01.438Z,99132.88
2023-02-13T01:33:29.400Z,99124.22
2023-02-13T01:35:56.036Z,99121.59
2023-02-13T01:38:22.594Z,99121.63
2023-02-13T01:40:51.829Z,99116.41
2023-02-13T01:43:19.012Z,99118.13
2023-02-13T01:45:48.781Z,99123.34
2023-02-13T01:48:17.484Z,99115.56
2023-02-13T01:50:50.125Z,99115.53
2023-02-13T01:53:35.739Z,99119.00
2023-02-13T01:56:11.697Z,99121.63
2023-02-13T01:58:41.237Z,99128.53
2023-02-13T02:01:08.907Z,99123.34
2023-02-13T02:03:49.446Z,99129.38
2023-02-13T02:06:26.321Z,99125.94
2023-02-13T02:08:56.537Z,99127.69
2023-02-13T02:11:32.216Z,99129.41
2023-02-13T02:13:59.176Z,99136.34
2023-02-13T02:16:26.312Z,99134.59
2023-02-13T02:18:53.303Z,99134.63
2023-02-13T02:21:47.597Z,99137.19
2023-02-13T02:24:44.667Z,99130.25
2023-02-13T02:27:29.795Z,99132.00
2023-02-13T02:30:27.678Z,99136.31
2023-02-13T02:33:02.855Z,99131.13
2023-02-13T02:35:52.248Z,99139.78
2023-02-13T02:38:49.993Z,99146.69
2023-02-13T02:41:45.040Z,99140.66
2023-02-13T02:44:29.587Z,99137.19
2023-02-13T02:47:34.582Z,99135.47
2023-02-13T02:50:16.229Z,99134.59
2023-02-13T02:53:03.895Z,99127.66
2023-02-13T02:55:53.032Z,99122.47
2023-02-13T02:58:49.794Z,99125.94
2023-02-13T03:01:39.542Z,99123.34
2023-02-13T03:04:25.332Z,99131.97
2023-02-13T03:07:07.015Z,99134.56
2023-02-13T03:09:57.886Z,99125.94
2023-02-13T03:12:48.738Z,99137.19
2023-02-13T03:15:15.296Z,99117.28
2023-02-13T03:18:01.909Z,99116.41
2023-02-13T03:20:57.418Z,99123.34
2023-02-13T03:23:47.583Z,99119.88
2023-02-13T03:26:14.068Z,99121.59
2023-02-13T03:29:01.948Z,99119.88
2023-02-13T03:31:54.176Z,99123.34
2023-02-13T03:34:25.890Z,99110.38
2023-02-13T03:37:36.050Z,99112.06
2023-02-13T03:40:02.387Z,99107.75
2023-02-13T03:42:47.282Z,99099.97
2023-02-13T03:45:44.449Z,99106.03
2023-02-13T03:48:33.267Z,99113.81
2023-02-13T03:51:02.487Z,99112.09
2023-02-13T03:53:33.160Z,99116.41
2023-02-13T03:56:21.673Z,99112.94
2023-02-13T03:59:13.039Z,99117.25
2023-02-13T04:01:40.174Z,99123.31
2023-02-13T04:04:17.497Z,99121.56
2023-02-13T04:06:43.984Z,99121.59
2023-02-13T04:09:10.646Z,99128.50
2023-02-13T04:11:48.963Z,99122.47
2023-02-13T04:14:23.940Z,99127.66
2023-02-13T04:16:56.169Z,99118.13
2023-02-13T04:19:25.635Z,99119.88
2023-02-13T04:21:58.004Z,99125.06
2023-02-13T04:24:26.035Z,99124.19
2023-02-13T04:26:53.678Z,99121.59
2023-02-13T04:29:25.596Z,99120.72
2023-02-13T04:31:52.294Z,99120.72
2023-02-13T04:34:18.948Z,99120.72
2023-02-13T04:36:45.516Z,99122.47
2023-02-13T04:39:12.807Z,99121.56
2023-02-13T04:41:39.310Z,99122.47
2023-02-13T04:44:05.908Z,99118.13
2023-02-13T04:46:32.416Z,99118.13
2023-02-13T04:48:58.882Z,99121.56
2023-02-13T04:51:25.393Z,99124.16
2023-02-13T04:53:51.947Z,99113.78
2023-02-13T04:56:19.918Z,99119.88
2023-02-13T04:58:46.610Z,99109.50
2023-02-13T05:01:15.321Z,99106.91
2023-02-13T05:03:42.361Z,99098.22
2023-02-13T05:06:09.179Z,99100.81
2023-02-13T05:08:35.762Z,99102.56
2023-02-13T05:11:02.248Z,99103.44
2023-02-13T05:13:28.823Z,99101.66
2023-02-13T05:15:55.564Z,99100.81
2023-02-13T05:18:22.081Z,99100.78
2023-02-13T05:21:07.220Z,99094.72
2023-02-13T05:23:33.739Z,99097.31
2023-02-13T05:26:00.390Z,99097.31
2023-02-13T05:28:45.420Z,99100.75
2023-02-13T05:31:12.083Z,99099.03
2023-02-13T05:33:38.728Z,99099.00
2023-02-13T05:36:05.711Z,99101.63
2023-02-13T05:38:32.284Z,99101.59
2023-02-13T05:41:00.563Z,99109.38
2023-02-13T05:43:28.048Z,99102.47
2023-02-13T05:46:08.987Z,99108.50
2023-02-13T05:48:36.487Z,99110.25
2023-02-13T05:51:03.108Z,99112.88
2023-02-13T05:53:29.931Z,99111.97
2023-02-13T05:55:56.779Z,99116.28
2023-02-13T05:58:23.609Z,99115.44
2023-02-13T06:00:50.148Z,99116.31
2023-02-13T06:03:16.723Z,99124.09
2023-02-13T06:05:43.180Z,99120.66
2023-02-13T06:08:09.718Z,99119.78
2023-02-13T06:10:36.233Z,99126.72
2023-02-13T06:13:02.807Z,99122.38
2023-02-13T06:15:29.329Z,99123.25
2023-02-13T06:17:55.819Z,99129.31
2023-02-13T06:20:22.332Z,99131.91
2023-02-13T06:22:52.608Z,99140.50
2023-02-13T06:25:19.608Z,99137.91
2023-02-13T06:27:46.308Z,99143.97
2023-02-13T06:30:13.804Z,99150.03
2023-02-13T06:32:40.310Z,99150.88
2023-02-13T06:35:07.724Z,99154.38
2023-02-13T06:37:34.310Z,99157.84
2023-02-13T06:40:01.240Z,99168.22
2023-02-13T06:42:27.794Z,99160.47
2023-02-13T06:44:54.318Z,99162.19
2023-02-13T06:47:20.841Z,99159.59
2023-02-13T06:49:47.335Z,99163.06
2023-02-13T06:52:13.834Z,99170.00
2023-02-13T06:54:47.201Z,99175.22
2023-02-13T06:57:15.262Z,99180.41
2023-02-13T06:59:42.116Z,99181.28
2023-02-13T07:02:12.163Z,99179.53
2023-02-13T07:04:38.655Z,99182.13
2023-02-13T07:07:05.285Z,99183.84
2023-02-13T07:09:32.256Z,99183.00
2023-02-13T07:11:58.926Z,99188.19
2023-02-13T07:14:25.390Z,99196.00
2023-02-13T07:16:51.893Z,99196.00
2023-02-13T07:19:18.775Z,99203.81
2023-02-13T07:21:45.261Z,99202.06
2023-02-13T07:24:11.795Z,99209.84
2023-02-13T07:26:38.396Z,99210.72
2023-02-13T07:29:11.467Z,99203.78
2023-02-13T07:31:39.359Z,99209.84
2023-02-13T07:34:05.943Z,99215.03
2023-02-13T07:36:32.484Z,99218.53
2023-02-13T07:38:58.947Z,99213.34
2023-02-13T07:41:28.538Z,99223.75
2023-02-13T07:43:55.184Z,99222.88
2023-02-13T07:46:21.794Z,99226.34
2023-02-13T07:48:48.319Z,99221.16
2023-02-13T07:51:14.849Z,99221.16
2023-02-13T07:53:41.319Z,99224.59
2023-02-13T07:56:09.473Z,99220.28
2023-02-13T07:58:40.085Z,99231.53
2023-02-13T08:01:11.632Z,99234.16
2023-02-13T08:03:38.758Z,99234.16
2023-02-13T08:06:06.501Z,99229.81
2023-02-13T08:08:33.484Z,99234.19
2023-02-13T08:11:26.968Z,99234.16
2023-02-13T08:13:53.463Z,99238.50
2023-02-13T08:16:20.039Z,99232.44
2023-02-13T08:18:46.576Z,99240.22
2023-02-13T08:21:14.957Z,99239.38
2023-02-13T08:23:41.581Z,99239.34
2023-02-13T08:26:08.097Z,99236.75
2023-02-13T08:28:34.679Z,99242.81
2023-02-13T08:31:01.271Z,99234.16
2023-02-13T08:33:27.794Z,99231.59
2023-02-13T08:35:54.388Z,99238.50
2023-02-13T08:38:21.293Z,99236.78
2023-02-13T08:40:47.768Z,99235.91
2023-02-13T08:43:14.342Z,99237.63
2023-02-13T08:45:40.912Z,99244.56
2023-02-13T08:48:07.546Z,99242.81
2023-02-13T08:50:36.328Z,99243.66
2023-02-13T08:53:04.029Z,99241.94
2023-02-13T08:55:31.549Z,99245.41
2023-02-13T08:58:04.954Z,99249.69
2023-02-13T09:00:31.821Z,99247.09
2023-02-13T09:03:02.653Z,99253.13
2023-02-13T09:05:31.580Z,99253.16
2023-02-13T09:08:03.582Z,99248.88
2023-02-13T09:10:32.117Z,99250.63
2023-02-13T09:12:59.186Z,99252.34
2023-02-13T09:15:25.642Z,99252.34
2023-02-13T09:17:52.119Z,99250.63
2023-02-13T09:20:19.109Z,99249.78
2023-02-13T09:22:45.629Z,99249.78
2023-02-13T09:25:12.185Z,99254.09
2023-02-13T09:27:41.233Z,99254.09
2023-02-13T09:30:10.186Z,99248.03
2023-02-13T09:32:40.012Z,99248.88
2023-02-13T09:35:06.577Z,99257.56
2023-02-13T09:37:33.143Z,99257.53
2023-02-13T09:39:59.692Z,99253.19
2023-02-13T09:42:33.025Z,99265.34
2023-02-13T09:45:03.113Z,99258.41
2023-02-13T09:47:43.285Z,99266.19
2023-02-13T09:50:13.045Z,99269.63
2023-02-13T09:52:41.232Z,99272.22
2023-02-13T09:55:16.967Z,99270.47
2023-02-13T09:57:52.892Z,99273.03
2023-02-13T10:00:31.607Z,99273.94
2023-02-13T10:02:58.223Z,99266.97
2023-02-13T10:05:46.618Z,99279.97
2023-02-13T10:08:31.443Z,99274.81
2023-02-13T10:11:03.743Z,99268.75
2023-02-13T10:13:35.830Z,99270.44
2023-02-13T10:16:29.894Z,99271.28
2023-02-13T10:19:14.990Z,99266.03
2023-02-13T10:21:50.921Z,99264.31
2023-02-13T10:24:35.696Z,99264.31
2023-02-13T10:27:14.973Z,99256.50
2023-02-13T10:30:06.232Z,99254.78
2023-02-13T10:33:19.984Z,99256.50
2023-02-13T10:35:53.345Z,99252.97
2023-02-13T10:38:22.279Z,99245.06
2023-02-13T10:40:59.466Z,99244.19
2023-02-13T10:43:30.104Z,99244.13
2023-02-13T10:46:22.329Z,99245.81
2023-02-13T10:49:46.312Z,99254.66
2023-02-13T10:52:26.883Z,99252.03
2023-02-13T10:55:23.126Z,99245.91
2023-02-13T10:58:08.751Z,99245.97
2023-02-13T11:00:43.196Z,99245.09
2023-02-13T11:03:20.808Z,99236.38
2023-02-13T11:05:47.987Z,99238.19
2023-02-13T11:08:23.241Z,99245.16
2023-02-13T11:10:50.651Z,99238.13
2023-02-13T11:13:21.389Z,99229.44
2023-02-13T11:16:07.573Z,99232.06
2023-02-13T11:18:39.957Z,99231.19
2023-02-13T11:21:16.283Z,99231.13
2023-02-13T11:23:45.156Z,99231.97
2023-02-13T11:26:36.293Z,99231.09
2023-02-13T11:29:36.404Z,99224.84
2023-02-13T11:32:32.425Z,99221.44
2023-02-13T11:35:21.317Z,99223.19
2023-02-13T11:37:47.826Z,99230.13
2023-02-13T11:40:31.692Z,99229.38
2023-02-13T11:42:58.291Z,99228.38
2023-02-13T11:45:26.065Z,99230.00
2023-02-13T11:47:55.246Z,99229.13
2023-02-13T11:50:27.403Z,99225.69
2023-02-13T11:53:16.332Z,99229.13
2023-02-13T11:55:43.989Z,99229.88
2023-02-13T11:58:10.471Z,99219.34
2023-02-13T12:00:40.506Z,99228.88
2023-02-13T12:03:22.221Z,99228.84
2023-02-13T12:06:18.583Z,99225.28
2023-02-13T12:08:48.321Z,99222.53
2023-02-13T12:11:38.570Z,99212.94
2023-02-13T12:14:05.085Z,99210.22
2023-02-13T12:16:50.520Z,99205.97
2023-02-13T12:19:29.918Z,99212.00
2023-02-13T12:22:15.080Z,99204.19
2023-02-13T12:25:18.289Z,99202.53
2023-02-13T12:28:03.431Z,99205.16
2023-02-13T12:30:48.209Z,99195.53
2023-02-13T12:33:33.376Z,99194.63
2023-02-13T12:36:09.009Z,99201.53
2023-02-13T12:38:54.217Z,99199.88
2023-02-13T12:41:28.659Z,99192.03
2023-02-13T12:44:13.344Z,99193.78
2023-02-13T12:46:45.814Z,99197.25
2023-02-13T12:49:30.497Z,99192.94
2023-02-13T12:52:37.172Z,99191.16
2023-02-13T12:55:28.511Z,99193.84
2023-02-13T12:58:13.526Z,99187.69
2023-02-13T13:00:55.070Z,99186.09
2023-02-13T13:03:33.951Z,99186.81
2023-02-13T13:06:22.600Z,99190.25
2023-02-13T13:09:22.599Z,99178.03
2023-02-13T13:12:01.819Z,99184.09
2023-02-13T13:15:23.866Z,99184.06
2023-02-13T13:18:07.931Z,99181.47
2023-02-13T13:20:58.036Z,99185.75
2023-02-13T13:23:24.773Z,99187.38
2023-02-13T13:25:51.192Z,99180.50
2023-02-13T13:28:22.248Z,99186.63
2023-02-13T13:30:49.639Z,99185.66
2023-02-13T13:33:19.999Z,99177.88
2023-02-13T13:36:09.544Z,99177.88
2023-02-13T13:38:46.010Z,99174.28
2023-02-13T13:41:23.747Z,99165.63
2023-02-13T13:44:14.653Z,99169.13
2023-02-13T13:46:50.810Z,99162.41
2023-02-13T13:49:25.875Z,99169.41
2023-02-13T13:51:52.488Z,99169.25
2023-02-13T13:54:22.912Z,99168.44
2023-02-13T13:57:02.254Z,99165.84
2023-02-13T13:59:37.785Z,99157.06
2023-02-13T14:02:19.486Z,99163.03
2023-02-13T14:05:17.450Z,99155.94
2023-02-13T14:07:45.463Z,99161.94
2023-02-13T14:10:20.895Z,99160.25
2023-02-13T14:12:49.651Z,99162.78
2023-02-13T14:15:34.915Z,99165.38
2023-02-13T14:18:07.960Z,99158.47
2023-02-13T14:20:38.818Z,99163.88
2023-02-13T14:23:35.952Z,99165.72
2023-02-13T14:26:30.250Z,99156.19
2023-02-13T14:29:03.566Z,99158.94
2023-02-13T14:31:39.399Z,99152.06
2023-02-13T14:34:05.881Z,99147.72
2023-02-13T14:36:42.074Z,99150.44
2023-02-13T14:39:23.551Z,99143.50
2023-02-13T14:41:55.810Z,99147.03
2023-02-13T14:44:36.123Z,99147.06
2023-02-13T14:47:20.402Z,99154.06
2023-02-13T14:49:49.532Z,99157.56
2023-02-13T14:52:26.280Z,99155.91
2023-02-13T14:54:58.266Z,99147.31
2023-02-13T14:57:51.850Z,99145.56
2023-02-13T15:00:31.329Z,99148.22
2023-02-13T15:03:18.073Z,99144.69
2023-02-13T15:05:51.746Z,99144.75
2023-02-13T15:08:21.838Z,99143.94
2023-02-13T15:10:52.699Z,99140.44
2023-02-13T15:13:23.685Z,99137.88
2023-02-13T15:16:13.747Z,99134.38
2023-02-13T15:18:55.360Z,99131.81
2023-02-13T15:21:32.987Z,99134.41
2023-02-13T15:23:59.622Z,99138.78
2023-02-13T15:26:30.517Z,99131.00
2023-02-13T15:29:11.376Z,99125.84
2023-02-13T15:31:40.582Z,99122.44
2023-02-13T15:34:32.237Z,99128.56
2023-02-13T15:36:58.854Z,99131.22
2023-02-13T15:39:28.433Z,99131.22
2023-02-13T15:41:59.109Z,99131.25
2023-02-13T15:44:35.331Z,99126.03
2023-02-13T15:47:07.853Z,99124.34
2023-02-13T15:49:42.220Z,99124.41
2023-02-13T15:52:18.085Z,99133.97
2023-02-13T15:54:50.107Z,99127.91
2023-02-13T15:57:17.710Z,99128.78
2023-02-13T15:59:45.223Z,99126.19
2023-02-13T16:02:19.771Z,99129.72
2023-02-13T16:04:47.803Z,99122.81
2023-02-13T16:07:14.819Z,99124.56
2023-02-13T16:09:42.064Z,99128.91
2023-02-13T16:12:25.758Z,99128.94
2023-02-13T16:14:56.812Z,99122.88
2023-02-13T16:17:38.431Z,99131.56
2023-02-13T16:20:08.595Z,99130.72
2023-02-13T16:22:37.600Z,99135.06
2023-02-13T16:25:13.233Z,99135.06
2023-02-13T16:27:56.921Z,99126.41
2023-02-13T16:30:41.349Z,99124.66
2023-02-13T16:33:16.723Z,99123.81
2023-02-13T16:35:49.211Z,99122.09
2023-02-13T16:38:35.421Z,99120.38
2023-02-13T16:41:05.907Z,99125.56
2023-02-13T16:43:52.094Z,99126.47
2023-02-13T16:46:27.441Z,99128.19
2023-02-13T16:48:57.126Z,99136.91
2023-02-13T16:51:42.202Z,99130.84
2023-02-13T16:54:11.662Z,99138.66
2023-02-13T16:56:41.548Z,99145.59
2023-02-13T16:59:29.093Z,99149.09
2023-02-13T17:02:16.143Z,99150.84
2023-02-13T17:04:51.586Z,99143.94
2023-02-13T17:07:21.026Z,99151.78
2023-02-13T17:10:28.168Z,99147.44
2023-02-13T17:12:56.510Z,99151.78
2023-02-13T17:15:25.096Z,99157.81
2023-02-13T17:17:51.691Z,99150.03
2023-02-13T17:20:22.179Z,99150.03
2023-02-13T17:22:50.998Z,99155.22
2023-02-13T17:25:27.590Z,99157.84
2023-02-13T17:28:11.512Z,99157.00
2023-02-13T17:30:38.096Z,99156.16
2023-02-13T17:33:13.419Z,99151.84
2023-02-13T17:35:39.933Z,99152.72
2023-02-13T17:38:08.323Z,99159.66
2023-02-13T17:40:35.020Z,99169.22
2023-02-13T17:43:02.131Z,99162.25
2023-02-13T17:45:30.965Z,99164.84
2023-02-13T17:47:58.089Z,99163.13
2023-02-13T17:50:27.410Z,99167.47
2023-02-13T17:52:54.766Z,99165.72
2023-02-13T17:55:27.176Z,99155.31
2023-02-13T17:57:56.577Z,99158.78
2023-02-13T18:00:25.108Z,99158.78
2023-02-13T18:02:51.661Z,99156.16
2023-02-13T18:05:19.002Z,99157.88
2023-02-13T18:07:46.832Z,99155.31
2023-02-13T18:10:22.222Z,99156.16
2023-02-13T18:12:49.949Z,99152.66
2023-02-13T18:15:16.883Z,99154.41
2023-02-13T18:17:43.785Z,99157.00
2023-02-13T18:20:16.630Z,99151.78
2023-02-13T18:22:43.918Z,99153.53
2023-02-13T18:25:11.946Z,99160.50
2023-02-13T18:27:38.551Z,99163.94
2023-02-13T18:30:06.216Z,99162.22
2023-02-13T18:32:33.041Z,99160.50
2023-02-13T18:34:59.690Z,99163.94
2023-02-13T18:37:29.402Z,99168.28
2023-02-13T18:39:56.768Z,99159.63
2023-02-13T18:42:23.265Z,99159.63
2023-02-13T18:44:49.761Z,99161.34
2023-02-13T18:47:16.234Z,99157.03
2023-02-13T18:49:42.800Z,99150.09
2023-02-13T18:52:09.372Z,99148.34
2023-02-13T18:54:36.143Z,99152.72
2023-02-13T18:57:02.636Z,99157.03
2023-02-13T18:59:29.126Z,99159.66
2023-02-13T19:01:55.638Z,99172.66
2023-02-13T19:04:22.435Z,99171.75
2023-02-13T19:06:49.004Z,99168.31
2023-02-13T19:09:15.560Z,99171.78
2023-02-13T19:11:42.818Z,99163.97
2023-02-13T19:14:13.018Z,99163.13
2023-02-13T19:16:39.572Z,99155.31
2023-02-13T19:19:07.407Z,99152.69
2023-02-13T19:21:36.513Z,99151.84
2023-02-13T19:24:05.575Z,99153.56
2023-02-13T19:26:32.100Z,99154.44
2023-02-13T19:28:59.046Z,99164.00
2023-02-13T19:31:28.649Z,99165.72
2023-02-13T19:33:55.618Z,99166.59
2023-02-13T19:36:24.711Z,99168.31
2023-02-13T19:39:00.150Z,99170.06
2023-02-13T19:41:29.040Z,99162.25
2023-02-13T19:43:55.969Z,99161.38
2023-02-13T19:46:27.888Z,99163.13
2023-02-13T19:48:55.191Z,99161.41
2023-02-13T19:51:27.784Z,99165.69
2023-02-13T19:54:01.599Z,99164.00
2023-02-13T19:56:29.631Z,99159.66
2023-02-13T19:58:56.366Z,99164.00
2023-02-13T20:01:24.948Z,99170.03
2023-02-13T20:03:51.850Z,99164.81
2023-02-13T20:06:27.895Z,99168.28
2023-02-13T20:09:01.626Z,99163.09
2023-02-13T20:11:28.521Z,99164.84
2023-02-13T20:13:57.064Z,99169.16
2023-02-13T20:16:24.097Z,99164.84
2023-02-13T20:18:50.918Z,99166.56
2023-02-13T20:21:18.812Z,99156.16
2023-02-13T20:23:51.001Z,99154.44
2023-02-13T20:26:18.322Z,99150.97
2023-02-13T20:28:46.092Z,99149.22
2023-02-13T20:31:22.957Z,99143.13
2023-02-13T20:33:51.474Z,99145.75
2023-02-13T20:36:23.376Z,99141.41
2023-02-13T20:38:52.493Z,99145.75
2023-02-13T20:41:21.938Z,99144.03
2023-02-13T20:43:48.487Z,99146.63
2023-02-13T20:46:16.191Z,99149.22
2023-02-13T20:48:45.087Z,99140.56
2023-02-13T20:51:13.781Z,99137.06
2023-02-13T20:53:41.706Z,99137.94
2023-02-13T20:56:11.598Z,99144.00
2023-02-13T20:58:38.724Z,99132.75
2023-02-13T21:01:12.533Z,99133.63
2023-02-13T21:03:39.237Z,99125.78
2023-02-13T21:06:06.412Z,99116.28
2023-02-13T21:08:32.976Z,99115.41
2023-02-13T21:11:04.939Z,99114.53
2023-02-13T21:13:35.383Z,99127.53
2023-02-13T21:16:14.829Z,99118.88
2023-02-13T21:18:43.048Z,99112.72
2023-02-13T21:21:11.184Z,99111.88
2023-02-13T21:23:38.178Z,99113.59
2023-02-13T21:26:11.394Z,99115.34
2023-02-13T21:28:38.584Z,99107.56
2023-02-13T21:31:07.090Z,99105.81
2023-02-13T21:33:33.804Z,99111.03
2023-02-13T21:36:04.926Z,99100.63
2023-02-13T21:38:31.468Z,99107.53
2023-02-13T21:41:04.995Z,99109.31
2023-02-13T21:43:31.606Z,99109.28
2023-02-13T21:46:12.066Z,99101.50
2023-02-13T21:48:40.286Z,99104.09
2023-02-13T21:51:09.122Z,99108.41
2023-02-13T21:53:35.840Z,99104.94
2023-02-13T21:56:04.073Z,99097.16
2023-02-13T21:58:34.994Z,99097.19
2023-02-13T22:01:03.012Z,99089.38
2023-02-13T22:03:29.609Z,99094.56
2023-02-13T22:05:56.090Z,99093.72
2023-02-13T22:08:22.596Z,99085.91
2023-02-13T22:10:56.397Z,99088.53
2023-02-13T22:13:23.845Z,99080.75
2023-02-13T22:16:05.493Z,99086.81
2023-02-13T22:18:34.978Z,99084.22
2023-02-13T22:21:19.435Z,99079.88
2023-02-13T22:23:47.487Z,99082.50
2023-02-13T22:26:19.262Z,99085.09
2023-02-13T22:28:46.408Z,99093.75
2023-02-13T22:31:14.230Z,99093.78
2023-02-13T22:33:42.750Z,99098.13
2023-02-13T22:36:09.955Z,99096.41
2023-02-13T22:38:38.126Z,99101.59
2023-02-13T22:41:09.534Z,99099.88
2023-02-13T22:43:36.869Z,99086.88
2023-02-13T22:46:18.180Z,99090.34
2023-02-13T22:48:47.861Z,99092.94
2023-02-13T22:51:17.563Z,99100.75
2023-02-13T22:53:45.498Z,99100.75
2023-02-13T22:56:12.235Z,99096.41
2023-02-13T22:58:39.230Z,99092.09
2023-02-13T23:01:15.072Z,99089.50
2023-02-13T23:03:42.316Z,99080.84
2023-02-13T23:06:10.620Z,99090.38
2023-02-13T23:08:37.499Z,99088.66
2023-02-13T23:11:25.656Z,99085.16
2023-02-13T23:13:52.628Z,99077.38
2023-02-13T23:16:19.217Z,99070.47
2023-02-13T23:18:51.822Z,99076.53
2023-02-13T23:21:18.983Z,99088.66
2023-02-13T23:23:45.505Z,99090.38
2023-02-13T23:26:12.070Z,99092.13
2023-02-13T23:28:38.627Z,99100.78
2023-02-13T23:31:05.364Z,99105.09
2023-02-13T23:33:32.173Z,99117.28
2023-02-13T23:35:58.774Z,99124.19
2023-02-13T23:38:25.341Z,99119.84
2023-02-13T23:40:51.976Z,99129.38
2023-02-13T23:43:18.527Z,99121.59
2023-02-13T23:45:45.257Z,99114.66
2023-02-13T23:48:12.786Z,99115.53
2023-02-13T23:50:40.235Z,99114.69
2023-02-13T23:53:07.704Z,99107.72
2023-02-13T23:55:34.285Z,99102.53
2023-02-13T23:58:01.024Z,99108.59
